createdAt,value
2023-11-18T00:02:35.316Z,98931.56
2023-11-18T00:07:41.985Z,98934.70
2023-11-18T00:12:44.458Z,98938.02
2023-11-18T00:17:46.603Z,98940.07
2023-11-18T00:22:48.753Z,98945.44
2023-11-18T00:27:50.714Z,98948.01
2023-11-18T00:32:53.761Z,98950.02
2023-11-18T00:37:56.007Z,98955.63
2023-11-18T00:42:58.393Z,98957.05
2023-11-18T00:48:00.542Z,98959.19
2023-11-18T00:53:02.722Z,98962.31
2023-11-18T00:58:06.182Z,98961.30
2023-11-18T01:03:09.560Z,98958.45
2023-11-18T01:08:11.767Z,98957.00
2023-11-18T01:13:13.895Z,98959.89
2023-11-18T01:18:16.460Z,98959.96
2023-11-18T01:23:18.652Z,98954.69
2023-11-18T01:28:20.650Z,98958.66
2023-11-18T01:33:24.235Z,98953.83
2023-11-18T01:38:27.330Z,98949.94
2023-11-18T01:43:29.608Z,98948.98
2023-11-18T01:48:35.016Z,98953.36
2023-11-18T01:53:43.615Z,98951.52
2023-11-18T01:58:46.404Z,98948.89
2023-11-18T02:03:48.708Z,98950.80
2023-11-18T02:08:50.933Z,98949.56
2023-11-18T02:13:55.707Z,98940.68
2023-11-18T02:18:57.819Z,98939.80
2023-11-18T02:23:59.948Z,98946.65
2023-11-18T02:29:02.124Z,98947.34
2023-11-18T02:34:16.938Z,98950.76
2023-11-18T02:39:30.059Z,98954.16
2023-11-18T02:44:33.907Z,98954.61
2023-11-18T02:49:37.136Z,98959.43
2023-11-18T02:54:39.725Z,98962.94
2023-11-18T02:59:41.825Z,98965.66
2023-11-18T03:04:45.504Z,98968.08
2023-11-18T03:09:48.231Z,98968.20
2023-11-18T03:14:50.795Z,98972.89
2023-11-18T03:19:53.029Z,98982.36
2023-11-18T03:24:55.374Z,98987.09
2023-11-18T03:29:57.486Z,98983.65
2023-11-18T03:35:02.768Z,98989.17
2023-11-18T03:40:06.298Z,98991.98
2023-11-18T03:45:10.782Z,99000.30
2023-11-18T03:50:14.908Z,99004.81
2023-11-18T03:55:17.312Z,99004.92
2023-11-18T04:00:21.041Z,99003.67
2023-11-18T04:05:23.483Z,99009.70
2023-11-18T04:10:25.632Z,99018.77
2023-11-18T04:15:28.189Z,99013.11
2023-11-18T04:20:30.281Z,99016.18
2023-11-18T04:25:32.303Z,99018.52
2023-11-18T04:30:34.389Z,99013.21
2023-11-18T04:35:36.434Z,99012.14
2023-11-18T04:40:39.985Z,99014.54
2023-11-18T04:45:43.930Z,99017.87
2023-11-18T04:50:46.583Z,99021.59
2023-11-18T04:55:48.778Z,99026.44
2023-11-18T05:00:51.727Z,99024.84
2023-11-18T05:05:57.734Z,99017.94
2023-11-18T05:11:00.683Z,99024.60
2023-11-18T05:16:04.274Z,99031.13
2023-11-18T05:21:07.000Z,99035.24
2023-11-18T05:26:10.234Z,99044.11
2023-11-18T05:31:13.172Z,99049.52
2023-11-18T05:36:15.221Z,99055.58
2023-11-18T05:41:24.837Z,99062.86
2023-11-18T05:46:31.072Z,99069.95
2023-11-18T05:51:33.518Z,99077.90
2023-11-18T05:56:35.694Z,99080.95
2023-11-18T06:01:38.813Z,99087.45
2023-11-18T06:06:41.007Z,99088.06
2023-11-18T06:11:43.070Z,99094.95
2023-11-18T06:16:45.158Z,99096.90
2023-11-18T06:21:47.260Z,99093.81
2023-11-18T06:26:50.754Z,99106.98
2023-11-18T06:31:54.078Z,99110.35
2023-11-18T06:36:57.452Z,99119.90
2023-11-18T06:42:01.344Z,99126.45
2023-11-18T06:47:06.456Z,99133.39
2023-11-18T06:52:11.166Z,99145.16
2023-11-18T06:57:13.589Z,99147.13
2023-11-18T07:02:16.841Z,99160.52
2023-11-18T07:07:19.312Z,99179.25
2023-11-18T07:12:21.871Z,99177.11
2023-11-18T07:17:25.012Z,99181.05
2023-11-18T07:22:28.019Z,99182.14
2023-11-18T07:27:30.207Z,99188.30
2023-11-18T07:32:32.348Z,99197.64
2023-11-18T07:37:34.785Z,99199.89
2023-11-18T07:42:36.873Z,99199.10
2023-11-18T07:47:40.833Z,99196.90
2023-11-18T07:52:42.964Z,99198.67
2023-11-18T07:57:45.248Z,99202.17
2023-11-18T08:02:47.596Z,99209.80
2023-11-18T08:07:50.846Z,99213.30
2023-11-18T08:12:55.517Z,99215.39
2023-11-18T08:17:57.553Z,99217.75
2023-11-18T08:23:00.560Z,99217.27
2023-11-18T08:28:04.908Z,99214.77
2023-11-18T08:33:10.339Z,99221.55
2023-11-18T08:38:13.886Z,99223.13
2023-11-18T08:43:17.984Z,99224.51
2023-11-18T08:48:20.353Z,99235.60
2023-11-18T08:53:27.840Z,99245.30
2023-11-18T08:58:35.160Z,99258.14
2023-11-18T09:03:37.856Z,99264.73
2023-11-18T09:08:44.019Z,99268.34
2023-11-18T09:13:52.765Z,99277.58
2023-11-18T09:18:54.952Z,99275.35
2023-11-18T09:24:00.311Z,99276.95
2023-11-18T09:29:05.418Z,99285.33
2023-11-18T09:34:08.117Z,99291.11
2023-11-18T09:39:17.652Z,99294.63
2023-11-18T09:44:19.731Z,99293.89
2023-11-18T09:49:35.275Z,99296.20
2023-11-18T09:54:54.544Z,99304.71
2023-11-18T10:00:20.961Z,99313.40
2023-11-18T10:05:28.269Z,99310.20
2023-11-18T10:10:38.189Z,99311.30
2023-11-18T10:15:41.156Z,99317.27
2023-11-18T10:20:43.546Z,99330.02
2023-11-18T10:25:50.382Z,99333.35
2023-11-18T10:30:52.578Z,99338.64
2023-11-18T10:35:56.977Z,99348.94
2023-11-18T10:41:02.705Z,99357.67
2023-11-18T10:46:08.642Z,99371.79
2023-11-18T10:51:15.242Z,99381.77
2023-11-18T10:56:30.526Z,99383.60
2023-11-18T11:01:35.138Z,99386.34
2023-11-18T11:06:42.999Z,99393.42
2023-11-18T11:11:56.331Z,99394.70
2023-11-18T11:17:12.594Z,99397.11
2023-11-18T11:22:22.468Z,99400.13
2023-11-18T11:27:41.112Z,99408.86
2023-11-18T11:32:49.502Z,99408.65
2023-11-18T11:37:55.478Z,99426.79
2023-11-18T11:42:58.801Z,99437.38
2023-11-18T11:48:17.288Z,99444.18
2023-11-18T11:53:25.218Z,99452.38
2023-11-18T11:58:28.623Z,99431.30
2023-11-18T12:03:37.725Z,99451.86
2023-11-18T12:08:42.861Z,99459.52
2023-11-18T12:14:26.073Z,99463.30
2023-11-18T12:19:37.550Z,99469.59
2023-11-18T12:24:44.126Z,99466.23
2023-11-18T12:29:46.122Z,99463.66
2023-11-18T12:34:55.480Z,99458.92
2023-11-18T12:40:25.732Z,99470.58
2023-11-18T12:45:55.055Z,99478.13
2023-11-18T12:50:57.564Z,99477.30
2023-11-18T12:56:02.479Z,99482.27
2023-11-18T13:01:06.061Z,99488.63
2023-11-18T13:06:08.387Z,99498.00
2023-11-18T13:11:17.766Z,99501.76
2023-11-18T13:16:19.878Z,99508.33
2023-11-18T13:21:23.878Z,99504.58
2023-11-18T13:26:26.091Z,99509.00
2023-11-18T13:31:28.345Z,99518.44
2023-11-18T13:36:31.969Z,99525.10
2023-11-18T13:41:34.411Z,99526.38
2023-11-18T13:46:41.399Z,99533.23
2023-11-18T13:51:45.314Z,99536.07
2023-11-18T13:56:47.273Z,99538.96
2023-11-18T14:01:50.251Z,99542.83
2023-11-18T14:06:54.565Z,99567.79
2023-11-18T14:11:57.697Z,99559.42
2023-11-18T14:17:00.285Z,99565.15
2023-11-18T14:22:07.835Z,99564.61
2023-11-18T14:27:11.584Z,99570.03
2023-11-18T14:32:15.493Z,99569.80
2023-11-18T14:37:17.910Z,99569.36
2023-11-18T14:42:22.537Z,99585.15
2023-11-18T14:47:24.445Z,99581.56
2023-11-18T14:52:26.372Z,99580.45
2023-11-18T14:57:28.562Z,99578.67
2023-11-18T15:02:30.674Z,99585.34
2023-11-18T15:07:33.139Z,99587.89
2023-11-18T15:12:35.725Z,99584.13
2023-11-18T15:17:46.349Z,99592.85
2023-11-18T15:22:50.640Z,99595.45
2023-11-18T15:27:52.588Z,99588.23
2023-11-18T15:32:54.926Z,99591.09
2023-11-18T15:37:56.887Z,99594.15
2023-11-18T15:42:58.834Z,99598.69
2023-11-18T15:48:01.915Z,99607.39
2023-11-18T15:53:04.914Z,99612.61
2023-11-18T15:58:07.206Z,99610.64
2023-11-18T16:03:09.814Z,99597.98
2023-11-18T16:08:12.505Z,99607.98
2023-11-18T16:13:14.772Z,99611.96
2023-11-18T16:18:17.251Z,99615.44
2023-11-18T16:23:19.475Z,99613.27
2023-11-18T16:28:21.742Z,99610.92
2023-11-18T16:33:27.239Z,99618.46
2023-11-18T16:38:31.904Z,99625.56
2023-11-18T16:43:34.474Z,99625.39
2023-11-18T16:48:36.904Z,99616.49
2023-11-18T16:53:39.003Z,99611.15
2023-11-18T16:58:40.923Z,99617.16
2023-11-18T17:03:43.180Z,99627.94
2023-11-18T17:08:45.748Z,99633.77
2023-11-18T17:13:49.169Z,99640.88
2023-11-18T17:18:52.445Z,99653.13
2023-11-18T17:23:54.824Z,99654.59
2023-11-18T17:28:56.946Z,99653.38
2023-11-18T17:33:59.085Z,99647.49
2023-11-18T17:39:01.167Z,99644.35
2023-11-18T17:44:03.285Z,99639.30
2023-11-18T17:49:06.076Z,99644.88
2023-11-18T17:54:08.103Z,99659.48
2023-11-18T17:59:10.208Z,99659.20
2023-11-18T18:04:12.378Z,99647.39
2023-11-18T18:09:15.517Z,99647.69
2023-11-18T18:14:17.537Z,99641.16
2023-11-18T18:19:19.616Z,99632.48
2023-11-18T18:24:21.567Z,99622.55
2023-11-18T18:29:23.580Z,99611.29
2023-11-18T18:34:26.141Z,99616.55
2023-11-18T18:39:28.555Z,99604.30
2023-11-18T18:44:30.566Z,99618.09
2023-11-18T18:49:32.460Z,99627.64
2023-11-18T18:54:34.585Z,99632.84
2023-11-18T18:59:37.295Z,99627.59
2023-11-18T19:04:39.367Z,99614.40
2023-11-18T19:09:42.784Z,99603.83
2023-11-18T19:14:44.899Z,99608.69
2023-11-18T19:19:47.675Z,99603.25
2023-11-18T19:24:49.774Z,99588.69
2023-11-18T19:29:51.861Z,99589.73
2023-11-18T19:34:58.154Z,99584.32
2023-11-18T19:40:00.254Z,99587.58
2023-11-18T19:45:03.431Z,99582.02
2023-11-18T19:50:06.229Z,99577.99
2023-11-18T19:55:10.514Z,99573.39
2023-11-18T20:00:13.654Z,99570.30
2023-11-18T20:05:17.413Z,99572.00
2023-11-18T20:10:19.480Z,99579.77
2023-11-18T20:15:28.490Z,99578.42
2023-11-18T20:20:32.921Z,99575.64
2023-11-18T20:25:36.389Z,99562.89
2023-11-18T20:30:41.583Z,99564.95
2023-11-18T20:35:44.036Z,99558.20
2023-11-18T20:40:47.472Z,99559.30
2023-11-18T20:45:53.636Z,99540.98
2023-11-18T20:50:55.783Z,99527.59
2023-11-18T20:55:58.122Z,99524.92
2023-11-18T21:01:02.137Z,99529.89
2023-11-18T21:06:06.073Z,99523.89
2023-11-18T21:11:08.618Z,99509.77
2023-11-18T21:16:10.981Z,99501.50
2023-11-18T21:21:13.866Z,99494.35
2023-11-18T21:26:15.856Z,99498.16
2023-11-18T21:31:18.105Z,99499.11
2023-11-18T21:36:22.903Z,99495.70
2023-11-18T21:41:24.999Z,99490.09
2023-11-18T21:46:28.565Z,99487.70
2023-11-18T21:51:33.620Z,99494.56
2023-11-18T21:56:36.037Z,99498.30
2023-11-18T22:01:38.850Z,99501.19
2023-11-18T22:06:45.297Z,99509.94
2023-11-18T22:11:50.628Z,99512.85
2023-11-18T22:16:52.695Z,99501.16
2023-11-18T22:21:57.054Z,99497.31
2023-11-18T22:27:00.092Z,99472.15
2023-11-18T22:32:04.575Z,99465.21
2023-11-18T22:37:07.227Z,99443.77
2023-11-18T22:42:14.534Z,99439.16
2023-11-18T22:47:16.600Z,99426.00
2023-11-18T22:52:18.729Z,99431.05
2023-11-18T22:57:20.799Z,99427.38
2023-11-18T23:02:24.121Z,99419.48
2023-11-18T23:07:26.185Z,99423.52
2023-11-18T23:12:29.708Z,99423.19
2023-11-18T23:17:52.045Z,99428.33
2023-11-18T23:22:54.413Z,99420.11
2023-11-18T23:33:02.707Z,99419.62
2023-11-18T23:38:06.776Z,99406.13
2023-11-18T23:43:08.947Z,99395.01
2023-11-18T23:48:11.745Z,99386.35
2023-11-18T23:53:13.825Z,99378.77
2023-11-18T23:58:16.079Z,99391.80
